sensor_id;sensor_type;location;lat;lon;timestamp;pressure;altitude;pressure_sealevel;temperature;humidity
10796;BME280;5450;42.994;23.372;2023-07-30T00:01:29;96170.09;;;18.75;100.00
10796;BME280;5450;42.994;23.372;2023-07-30T00:03:57;96133.25;;;18.54;100.00
10796;BME280;5450;42.994;23.372;2023-07-30T00:06:24;96132.59;;;18.58;100.00
10796;BME280;5450;42.994;23.372;2023-07-30T00:08:51;96166.78;;;18.79;100.00
10796;BME280;5450;42.994;23.372;2023-07-30T00:11:19;96169.06;;;18.76;100.00
10796;BME280;5450;42.994;23.372;2023-07-30T00:13:46;96172.78;;;18.75;100.00
10796;BME280;5450;42.994;23.372;2023-07-30T00:16:13;96168.34;;;18.69;100.00
10796;BME280;5450;42.994;23.372;2023-07-30T00:18:44;96166.94;;;18.66;100.00
10796;BME280;5450;42.994;23.372;2023-07-30T00:21:14;96172.38;;;18.53;100.00
10796;BME280;5450;42.994;23.372;2023-07-30T00:23:43;96174.06;;;18.48;100.00
10796;BME280;5450;42.994;23.372;2023-07-30T00:26:10;96169.13;;;18.51;100.00
10796;BME280;5450;42.994;23.372;2023-07-30T00:28:38;96175.25;;;18.52;100.00
10796;BME280;5450;42.994;23.372;2023-07-30T00:31:05;96143.47;;;18.32;100.00
10796;BME280;5450;42.994;23.372;2023-07-30T00:33:34;96156.88;;;18.44;100.00
10796;BME280;5450;42.994;23.372;2023-07-30T00:36:02;96160.59;;;18.43;100.00
10796;BME280;5450;42.994;23.372;2023-07-30T00:38:31;96160.59;;;18.43;100.00
10796;BME280;5450;42.994;23.372;2023-07-30T00:40:58;96161.59;;;18.42;100.00
10796;BME280;5450;42.994;23.372;2023-07-30T00:43:25;96116.63;;;18.15;100.00
10796;BME280;5450;42.994;23.372;2023-07-30T00:45:53;96179.38;;;18.48;100.00
10796;BME280;5450;42.994;23.372;2023-07-30T00:48:20;96148.00;;;18.32;100.00
10796;BME280;5450;42.994;23.372;2023-07-30T00:50:51;96151.78;;;18.42;100.00
10796;BME280;5450;42.994;23.372;2023-07-30T00:53:22;96165.28;;;18.47;100.00
10796;BME280;5450;42.994;23.372;2023-07-30T00:55:51;96164.47;;;18.47;100.00
10796;BME280;5450;42.994;23.372;2023-07-30T00:58:20;96161.22;;;18.45;100.00
10796;BME280;5450;42.994;23.372;2023-07-30T01:04:31;96164.31;;;18.35;100.00
10796;BME280;5450;42.994;23.372;2023-07-30T01:06:59;96166.94;;;18.17;100.00
10796;BME280;5450;42.994;23.372;2023-07-30T01:09:28;96181.69;;;18.13;100.00
10796;BME280;5450;42.994;23.372;2023-07-30T01:11:55;96168.22;;;18.14;100.00
10796;BME280;5450;42.994;23.372;2023-07-30T01:14:22;96169.34;;;18.00;100.00
10796;BME280;5450;42.994;23.372;2023-07-30T01:16:51;96159.47;;;18.07;100.00
10796;BME280;5450;42.994;23.372;2023-07-30T01:19:18;96178.84;;;18.14;100.00
10796;BME280;5450;42.994;23.372;2023-07-30T01:21:47;96131.09;;;17.77;100.00
10796;BME280;5450;42.994;23.372;2023-07-30T01:24:15;96172.31;;;18.10;100.00
10796;BME280;5450;42.994;23.372;2023-07-30T01:26:45;96168.47;;;18.06;100.00
10796;BME280;5450;42.994;23.372;2023-07-30T01:29:16;96171.16;;;18.00;100.00
10796;BME280;5450;42.994;23.372;2023-07-30T01:31:51;96162.59;;;17.98;100.00
10796;BME280;5450;42.994;23.372;2023-07-30T01:34:21;96175.84;;;18.04;100.00
10796;BME280;5450;42.994;23.372;2023-07-30T01:36:56;96169.94;;;18.02;100.00
10796;BME280;5450;42.994;23.372;2023-07-30T01:39:25;96175.16;;;17.91;100.00
10796;BME280;5450;42.994;23.372;2023-07-30T01:41:53;96182.50;;;17.89;100.00
10796;BME280;5450;42.994;23.372;2023-07-30T01:44:23;96176.38;;;17.88;100.00
10796;BME280;5450;42.994;23.372;2023-07-30T01:46:50;96157.00;;;17.81;100.00
10796;BME280;5450;42.994;23.372;2023-07-30T01:49:17;96173.97;;;17.80;100.00
10796;BME280;5450;42.994;23.372;2023-07-30T01:51:44;96179.50;;;17.79;100.00
10796;BME280;5450;42.994;23.372;2023-07-30T01:54:12;96178.69;;;17.78;100.00
10796;BME280;5450;42.994;23.372;2023-07-30T01:56:39;96182.41;;;17.77;100.00
10796;BME280;5450;42.994;23.372;2023-07-30T01:59:07;96188.09;;;17.81;100.00
10796;BME280;5450;42.994;23.372;2023-07-30T02:01:35;96190.97;;;17.79;100.00
10796;BME280;5450;42.994;23.372;2023-07-30T02:04:03;96184.81;;;17.79;100.00
10796;BME280;5450;42.994;23.372;2023-07-30T02:06:30;96190.75;;;17.81;100.00
10796;BME280;5450;42.994;23.372;2023-07-30T02:08:57;96179.88;;;17.82;100.00
10796;BME280;5450;42.994;23.372;2023-07-30T02:11:25;96183.59;;;17.81;100.00
10796;BME280;5450;42.994;23.372;2023-07-30T02:13:54;96183.84;;;17.73;100.00
10796;BME280;5450;42.994;23.372;2023-07-30T02:16:21;96182.47;;;17.64;100.00
10796;BME280;5450;42.994;23.372;2023-07-30T02:18:48;96186.59;;;17.60;100.00
10796;BME280;5450;42.994;23.372;2023-07-30T02:21:17;96185.81;;;17.53;100.00
10796;BME280;5450;42.994;23.372;2023-07-30T02:23:44;96181.72;;;17.51;100.00
10796;BME280;5450;42.994;23.372;2023-07-30T02:26:12;96188.88;;;17.50;100.00
10796;BME280;5450;42.994;23.372;2023-07-30T02:28:40;96186.03;;;17.45;100.00
10796;BME280;5450;42.994;23.372;2023-07-30T02:31:10;96155.16;;;17.13;100.00
10796;BME280;5450;42.994;23.372;2023-07-30T02:33:37;96196.47;;;17.40;100.00
10796;BME280;5450;42.994;23.372;2023-07-30T02:36:06;96198.56;;;17.31;100.00
10796;BME280;5450;42.994;23.372;2023-07-30T02:38:37;96170.84;;;17.21;100.00
10796;BME280;5450;42.994;23.372;2023-07-30T02:41:05;96064.78;;;16.37;100.00
10796;BME280;5450;42.994;23.372;2023-07-30T02:43:32;96191.84;;;17.22;100.00
10796;BME280;5450;42.994;23.372;2023-07-30T02:46:01;96198.59;;;17.25;100.00
10796;BME280;5450;42.994;23.372;2023-07-30T02:48:28;96204.31;;;17.22;100.00
10796;BME280;5450;42.994;23.372;2023-07-30T02:50:58;96205.97;;;17.23;100.00
10796;BME280;5450;42.994;23.372;2023-07-30T02:53:27;96205.09;;;17.29;100.00
10796;BME280;5450;42.994;23.372;2023-07-30T02:55:55;96196.13;;;17.30;100.00
10796;BME280;5450;42.994;23.372;2023-07-30T02:58:23;96200.00;;;17.27;100.00
10796;BME280;5450;42.994;23.372;2023-07-30T03:00:52;96204.72;;;17.25;100.00
10796;BME280;5450;42.994;23.372;2023-07-30T03:03:22;96203.94;;;17.18;100.00
10796;BME280;5450;42.994;23.372;2023-07-30T03:05:49;96161.63;;;16.73;100.00
10796;BME280;5450;42.994;23.372;2023-07-30T03:08:16;96202.09;;;17.19;100.00
10796;BME280;5450;42.994;23.372;2023-07-30T03:10:43;96203.53;;;17.15;100.00
10796;BME280;5450;42.994;23.372;2023-07-30T03:13:10;96212.13;;;17.17;100.00
10796;BME280;5450;42.994;23.372;2023-07-30T03:16:05;96206.38;;;17.13;100.00
10796;BME280;5450;42.994;23.372;2023-07-30T03:18:34;96201.91;;;17.14;100.00
10796;BME280;5450;42.994;23.372;2023-07-30T03:21:01;96223.94;;;17.21;100.00
10796;BME280;5450;42.994;23.372;2023-07-30T03:23:29;96205.16;;;17.16;100.00
10796;BME280;5450;42.994;23.372;2023-07-30T03:25:57;96213.31;;;17.21;100.00
10796;BME280;5450;42.994;23.372;2023-07-30T03:28:25;96207.22;;;17.14;100.00
10796;BME280;5450;42.994;23.372;2023-07-30T03:30:56;96208.25;;;17.13;100.00
10796;BME280;5450;42.994;23.372;2023-07-30T03:33:27;96207.22;;;17.14;100.00
10796;BME280;5450;42.994;23.372;2023-07-30T03:35:56;96207.81;;;17.16;100.00
10796;BME280;5450;42.994;23.372;2023-07-30T03:38:26;96205.56;;;17.19;100.00
10796;BME280;5450;42.994;23.372;2023-07-30T03:40:53;96211.28;;;17.16;100.00
10796;BME280;5450;42.994;23.372;2023-07-30T03:43:20;96201.06;;;17.20;100.00
10796;BME280;5450;42.994;23.372;2023-07-30T03:45:47;96205.97;;;17.16;100.00
10796;BME280;5450;42.994;23.372;2023-07-30T03:48:14;96209.66;;;17.15;100.00
10796;BME280;5450;42.994;23.372;2023-07-30T03:50:45;96195.03;;;17.00;100.00
10796;BME280;5450;42.994;23.372;2023-07-30T03:53:38;96210.09;;;17.06;100.00
10796;BME280;5450;42.994;23.372;2023-07-30T03:56:06;96212.75;;;17.06;100.00
10796;BME280;5450;42.994;23.372;2023-07-30T03:58:37;96209.06;;;17.07;100.00
10796;BME280;5450;42.994;23.372;2023-07-30T04:01:07;96208.47;;;17.05;100.00
10796;BME280;5450;42.994;23.372;2023-07-30T04:03:34;96216.88;;;17.02;100.00
10796;BME280;5450;42.994;23.372;2023-07-30T04:06:01;96209.50;;;17.04;100.00
10796;BME280;5450;42.994;23.372;2023-07-30T04:08:28;96210.09;;;17.06;100.00
10796;BME280;5450;42.994;23.372;2023-07-30T04:10:57;96216.63;;;17.10;100.00
10796;BME280;5450;42.994;23.372;2023-07-30T04:13:24;96213.78;;;17.05;100.00
10796;BME280;5450;42.994;23.372;2023-07-30T04:15:50;96211.72;;;17.07;100.00
10796;BME280;5450;42.994;23.372;2023-07-30T04:18:17;96210.94;;;17.00;100.00
10796;BME280;5450;42.994;23.372;2023-07-30T04:20:45;96214.22;;;16.95;100.00
10796;BME280;5450;42.994;23.372;2023-07-30T04:23:12;96219.13;;;16.92;100.00
10796;BME280;5450;42.994;23.372;2023-07-30T04:25:39;96216.69;;;16.90;100.00
10796;BME280;5450;42.994;23.372;2023-07-30T04:28:07;96221.16;;;16.96;100.00
10796;BME280;5450;42.994;23.372;2023-07-30T04:30:59;96220.34;;;16.96;100.00
10796;BME280;5450;42.994;23.372;2023-07-30T04:33:51;96221.16;;;16.90;100.00
10796;BME280;5450;42.994;23.372;2023-07-30T04:36:19;96216.47;;;16.92;100.00
10796;BME280;5450;42.994;23.372;2023-07-30T04:38:47;96208.53;;;16.85;100.00
10796;BME280;5450;42.994;23.372;2023-07-30T04:41:15;96213.81;;;16.92;100.00
10796;BME280;5450;42.994;23.372;2023-07-30T04:43:47;96220.16;;;16.91;100.00
10796;BME280;5450;42.994;23.372;2023-07-30T04:46:14;96228.72;;;16.93;100.00
10796;BME280;5450;42.994;23.372;2023-07-30T04:48:44;96219.31;;;16.97;100.00
10796;BME280;5450;42.994;23.372;2023-07-30T04:51:12;96183.25;;;16.76;100.00
10796;BME280;5450;42.994;23.372;2023-07-30T04:54:05;96213.81;;;16.92;100.00
10796;BME280;5450;42.994;23.372;2023-07-30T04:56:32;96214.63;;;16.99;100.00
10796;BME280;5450;42.994;23.372;2023-07-30T04:59:01;96202.53;;;17.09;100.00
10796;BME280;5450;42.994;23.372;2023-07-30T05:01:53;96215.13;;;17.27;100.00
10796;BME280;5450;42.994;23.372;2023-07-30T05:04:20;96214.81;;;17.48;100.00
10796;BME280;5450;42.994;23.372;2023-07-30T05:06:47;96210.25;;;17.68;100.00
10796;BME280;5450;42.994;23.372;2023-07-30T05:09:14;96211.09;;;17.93;100.00
10796;BME280;5450;42.994;23.372;2023-07-30T05:11:41;96213.41;;;18.14;100.00
10796;BME280;5450;42.994;23.372;2023-07-30T05:17:17;96205.03;;;18.60;100.00
10796;BME280;5450;42.994;23.372;2023-07-30T05:19:45;96204.25;;;18.78;100.00
10796;BME280;5450;42.994;23.372;2023-07-30T05:22:12;96205.91;;;18.97;100.00
10796;BME280;5450;42.994;23.372;2023-07-30T05:24:41;96199.97;;;19.13;100.00
10796;BME280;5450;42.994;23.372;2023-07-30T05:27:13;96194.41;;;19.33;100.00
10796;BME280;5450;42.994;23.372;2023-07-30T05:29:40;96202.53;;;19.56;100.00
10796;BME280;5450;42.994;23.372;2023-07-30T05:32:10;96210.03;;;19.47;100.00
10796;BME280;5450;42.994;23.372;2023-07-30T05:34:40;96145.06;;;19.48;100.00
10796;BME280;5450;42.994;23.372;2023-07-30T05:37:07;96203.03;;;20.06;100.00
10796;BME280;5450;42.994;23.372;2023-07-30T05:39:33;96197.09;;;20.22;100.00
10796;BME280;5450;42.994;23.372;2023-07-30T05:42:03;96174.47;;;20.24;100.00
10796;BME280;5450;42.994;23.372;2023-07-30T05:44:31;96082.97;;;19.71;100.00
10796;BME280;5450;42.994;23.372;2023-07-30T05:47:01;96159.88;;;20.50;100.00
10796;BME280;5450;42.994;23.372;2023-07-30T05:49:33;96190.16;;;20.79;100.00
10796;BME280;5450;42.994;23.372;2023-07-30T05:52:02;96176.09;;;20.83;100.00
10796;BME280;5450;42.994;23.372;2023-07-30T05:54:34;96181.75;;;21.10;99.99
10796;BME280;5450;42.994;23.372;2023-07-30T05:57:04;96194.84;;;21.35;98.89
10796;BME280;5450;42.994;23.372;2023-07-30T06:02:49;96184.91;;;21.75;100.00
10796;BME280;5450;42.994;23.372;2023-07-30T06:05:16;96187.88;;;21.90;100.00
10796;BME280;5450;42.994;23.372;2023-07-30T06:07:46;96188.72;;;22.07;98.85
10796;BME280;5450;42.994;23.372;2023-07-30T06:10:13;96189.53;;;22.24;97.37
10796;BME280;5450;42.994;23.372;2023-07-30T06:12:43;96182.81;;;22.38;95.01
10796;BME280;5450;42.994;23.372;2023-07-30T06:15:10;96181.97;;;22.54;96.62
10796;BME280;5450;42.994;23.372;2023-07-30T06:17:37;96191.91;;;22.71;97.52
10796;BME280;5450;42.994;23.372;2023-07-30T06:20:09;96178.66;;;22.81;95.58
10796;BME280;5450;42.994;23.372;2023-07-30T06:22:36;96179.63;;;22.91;93.30
10796;BME280;5450;42.994;23.372;2023-07-30T06:25:06;96137.97;;;22.84;92.43
10796;BME280;5450;42.994;23.372;2023-07-30T06:27:33;96166.34;;;23.23;93.47
10796;BME280;5450;42.994;23.372;2023-07-30T06:30:01;96165.00;;;23.42;95.17
10796;BME280;5450;42.994;23.372;2023-07-30T06:33:02;96164.69;;;23.60;92.65
10796;BME280;5450;42.994;23.372;2023-07-30T06:35:30;96093.69;;;23.19;91.63
10796;BME280;5450;42.994;23.372;2023-07-30T06:37:58;96151.03;;;23.93;90.23
10796;BME280;5450;42.994;23.372;2023-07-30T06:40:28;96150.16;;;24.09;89.52
10796;BME280;5450;42.994;23.372;2023-07-30T06:42:58;96149.19;;;24.26;87.31
10796;BME280;5450;42.994;23.372;2023-07-30T06:45:26;96138.56;;;24.41;87.37
10796;BME280;5450;42.994;23.372;2023-07-30T06:48:14;96143.50;;;24.54;85.85
10796;BME280;5450;42.994;23.372;2023-07-30T06:50:55;96130.19;;;24.74;86.43
10796;BME280;5450;42.994;23.372;2023-07-30T06:53:22;96098.56;;;24.81;85.62
10796;BME280;5450;42.994;23.372;2023-07-30T06:55:51;96066.81;;;24.78;84.29
10796;BME280;5450;42.994;23.372;2023-07-30T06:58:18;96064.69;;;24.80;84.20
10796;BME280;5450;42.994;23.372;2023-07-30T07:00:44;96119.22;;;25.37;83.20
10796;BME280;5450;42.994;23.372;2023-07-30T07:03:11;96115.50;;;25.53;80.41
10796;BME280;5450;42.994;23.372;2023-07-30T07:05:38;96114.47;;;25.70;80.83
10796;BME280;5450;42.994;23.372;2023-07-30T07:08:05;96081.91;;;25.61;80.65
10796;BME280;5450;42.994;23.372;2023-07-30T07:10:32;96029.88;;;25.25;77.40
10796;BME280;5450;42.994;23.372;2023-07-30T07:13:01;96102.69;;;26.11;78.44
10796;BME280;5450;42.994;23.372;2023-07-30T07:15:28;96104.84;;;26.29;78.96
10796;BME280;5450;42.994;23.372;2023-07-30T07:17:55;96047.75;;;26.17;77.99
10796;BME280;5450;42.994;23.372;2023-07-30T07:20:22;96101.03;;;26.70;77.67
10796;BME280;5450;42.994;23.372;2023-07-30T07:22:50;96088.84;;;26.93;73.87
10796;BME280;5450;42.994;23.372;2023-07-30T07:25:17;96087.94;;;27.13;72.85
10796;BME280;5450;42.994;23.372;2023-07-30T07:28:18;96073.28;;;27.34;75.66
10796;BME280;5450;42.994;23.372;2023-07-30T07:30:51;96070.78;;;27.52;73.70
10796;BME280;5450;42.994;23.372;2023-07-30T07:33:18;95986.56;;;27.07;69.99
10796;BME280;5450;42.994;23.372;2023-07-30T07:35:45;96060.50;;;27.93;69.58
10796;BME280;5450;42.994;23.372;2023-07-30T07:38:13;96046.19;;;27.98;68.58
10796;BME280;5450;42.994;23.372;2023-07-30T07:40:42;96057.53;;;28.28;67.76
10796;BME280;5450;42.994;23.372;2023-07-30T07:43:09;96049.72;;;28.50;68.11
10796;BME280;5450;42.994;23.372;2023-07-30T07:45:37;96052.34;;;28.61;63.63
10796;BME280;5450;42.994;23.372;2023-07-30T07:48:05;96053.78;;;28.77;61.54
10796;BME280;5450;42.994;23.372;2023-07-30T07:50:35;96047.69;;;28.90;60.58
10796;BME280;5450;42.994;23.372;2023-07-30T07:53:02;96027.94;;;28.89;61.90
10796;BME280;5450;42.994;23.372;2023-07-30T07:55:29;96046.41;;;29.06;59.64
10796;BME280;5450;42.994;23.372;2023-07-30T07:57:59;95986.25;;;28.72;58.96
10796;BME280;5450;42.994;23.372;2023-07-30T08:00:26;96037.53;;;29.24;54.41
10796;BME280;5450;42.994;23.372;2023-07-30T08:02:55;96034.84;;;29.43;54.60
10796;BME280;5450;42.994;23.372;2023-07-30T08:05:22;96013.91;;;29.48;53.20
10796;BME280;5450;42.994;23.372;2023-07-30T08:07:51;96006.44;;;29.59;51.98
10796;BME280;5450;42.994;23.372;2023-07-30T08:10:19;96031.09;;;29.94;48.81
10796;BME280;5450;42.994;23.372;2023-07-30T08:13:17;96021.59;;;30.11;46.77
10796;BME280;5450;42.994;23.372;2023-07-30T08:15:44;96024.72;;;30.18;45.36
10796;BME280;5450;42.994;23.372;2023-07-30T08:18:14;96026.16;;;30.29;45.27
10796;BME280;5450;42.994;23.372;2023-07-30T08:20:42;96014.13;;;30.35;46.38
10796;BME280;5450;42.994;23.372;2023-07-30T08:23:12;95983.47;;;30.21;45.85
10796;BME280;5450;42.994;23.372;2023-07-30T08:25:45;96021.41;;;30.53;45.93
10796;BME280;5450;42.994;23.372;2023-07-30T08:28:14;96023.00;;;30.40;44.33
10796;BME280;5450;42.994;23.372;2023-07-30T08:30:49;96017.28;;;30.42;44.55
10796;BME280;5450;42.994;23.372;2023-07-30T08:33:17;95987.94;;;30.44;42.49
10796;BME280;5450;42.994;23.372;2023-07-30T08:35:44;96004.63;;;30.78;40.94
10796;BME280;5450;42.994;23.372;2023-07-30T08:38:15;96003.13;;;30.99;41.50
10796;BME280;5450;42.994;23.372;2023-07-30T08:41:12;96000.47;;;31.21;38.85
10796;BME280;5450;42.994;23.372;2023-07-30T08:43:40;96002.25;;;31.39;40.17
10796;BME280;5450;42.994;23.372;2023-07-30T08:46:07;95980.94;;;31.47;39.38
10796;BME280;5450;42.994;23.372;2023-07-30T08:48:39;95998.75;;;31.75;37.90
10796;BME280;5450;42.994;23.372;2023-07-30T08:51:37;95990.22;;;31.90;37.19
10796;BME280;5450;42.994;23.372;2023-07-30T08:54:07;95984.78;;;31.90;36.32
10796;BME280;5450;42.994;23.372;2023-07-30T08:56:35;95967.59;;;31.81;36.29
10796;BME280;5450;42.994;23.372;2023-07-30T08:59:03;95985.19;;;32.05;37.40
10796;BME280;5450;42.994;23.372;2023-07-30T09:01:37;95986.25;;;32.18;36.39
10796;BME280;5450;42.994;23.372;2023-07-30T09:04:06;95986.16;;;32.32;37.01
10796;BME280;5450;42.994;23.372;2023-07-30T09:06:34;95929.44;;;31.86;35.67
10796;BME280;5450;42.994;23.372;2023-07-30T09:09:01;95979.13;;;32.31;36.58
10796;BME280;5450;42.994;23.372;2023-07-30T09:11:31;95976.72;;;32.29;37.70
10796;BME280;5450;42.994;23.372;2023-07-30T09:14:01;95970.91;;;32.22;36.12
10796;BME280;5450;42.994;23.372;2023-07-30T09:16:47;95938.53;;;32.12;34.79
10796;BME280;5450;42.994;23.372;2023-07-30T09:22:50;95973.50;;;32.58;35.81
10796;BME280;5450;42.994;23.372;2023-07-30T09:31:31;95971.06;;;32.96;34.21
10796;BME280;5450;42.994;23.372;2023-07-30T09:37:33;95944.50;;;33.10;33.87
10796;BME280;5450;42.994;23.372;2023-07-30T09:40:06;95962.47;;;33.28;35.56
10796;BME280;5450;42.994;23.372;2023-07-30T09:42:42;95938.44;;;33.13;33.86
10796;BME280;5450;42.994;23.372;2023-07-30T09:45:16;95946.59;;;33.13;33.93
10796;BME280;5450;42.994;23.372;2023-07-30T09:48:14;95946.59;;;33.13;33.09
10796;BME280;5450;42.994;23.372;2023-07-30T09:50:48;95934.09;;;33.12;33.32
10796;BME280;5450;42.994;23.372;2023-07-30T09:53:18;95925.78;;;33.17;33.57
10796;BME280;5450;42.994;23.372;2023-07-30T09:55:54;95925.94;;;33.20;34.01
10796;BME280;5450;42.994;23.372;2023-07-30T09:58:21;95911.16;;;32.96;34.03
10796;BME280;5450;42.994;23.372;2023-07-30T10:03:59;95921.84;;;32.83;33.37
10796;BME280;5450;42.994;23.372;2023-07-30T10:06:31;95924.75;;;32.78;33.88
10796;BME280;5450;42.994;23.372;2023-07-30T10:09:02;95912.13;;;32.91;34.50
10796;BME280;5450;42.994;23.372;2023-07-30T10:11:32;95913.78;;;33.09;33.16
10796;BME280;5450;42.994;23.372;2023-07-30T10:14:06;95911.53;;;33.11;35.73
10796;BME280;5450;42.994;23.372;2023-07-30T10:17:13;95910.88;;;33.31;33.46
10796;BME280;5450;42.994;23.372;2023-07-30T10:19:47;95902.41;;;33.33;34.27
10796;BME280;5450;42.994;23.372;2023-07-30T10:22:26;95883.97;;;33.30;34.91
10796;BME280;5450;42.994;23.372;2023-07-30T10:28:31;95899.66;;;33.67;34.94
10796;BME280;5450;42.994;23.372;2023-07-30T10:31:05;95891.50;;;33.67;33.42
10796;BME280;5450;42.994;23.372;2023-07-30T10:33:49;95850.47;;;33.46;32.84
10796;BME280;5450;42.994;23.372;2023-07-30T10:36:31;95870.03;;;33.40;34.35
10796;BME280;5450;42.994;23.372;2023-07-30T10:39:09;95878.38;;;33.52;33.58
10796;BME280;5450;42.994;23.372;2023-07-30T10:41:44;95872.94;;;33.52;34.60
10796;BME280;5450;42.994;23.372;2023-07-30T10:44:27;95862.06;;;33.18;33.79
10796;BME280;5450;42.994;23.372;2023-07-30T10:46:55;95858.66;;;33.12;33.75
10796;BME280;5450;42.994;23.372;2023-07-30T10:50:00;95855.13;;;33.20;35.49
10796;BME280;5450;42.994;23.372;2023-07-30T10:52:35;95858.16;;;33.36;33.50
10796;BME280;5450;42.994;23.372;2023-07-30T10:55:07;95857.69;;;33.51;32.81
10796;BME280;5450;42.994;23.372;2023-07-30T10:57:43;95819.13;;;33.15;33.74
10796;BME280;5450;42.994;23.372;2023-07-30T11:00:47;95854.00;;;32.87;34.86
10796;BME280;5450;42.994;23.372;2023-07-30T11:03:18;95853.41;;;32.42;34.68
10796;BME280;5450;42.994;23.372;2023-07-30T11:09:39;95849.31;;;32.14;36.56
10796;BME280;5450;42.994;23.372;2023-07-30T11:12:08;95860.28;;;32.31;36.16
10796;BME280;5450;42.994;23.372;2023-07-30T11:18:01;95809.06;;;32.16;36.19
10796;BME280;5450;42.994;23.372;2023-07-30T11:20:40;95845.44;;;32.46;38.83
10796;BME280;5450;42.994;23.372;2023-07-30T11:23:25;95816.19;;;32.51;35.74
10796;BME280;5450;42.994;23.372;2023-07-30T11:26:29;95828.22;;;32.76;36.80
10796;BME280;5450;42.994;23.372;2023-07-30T11:29:16;95814.28;;;32.60;36.69
10796;BME280;5450;42.994;23.372;2023-07-30T11:31:49;95821.16;;;32.75;37.46
10796;BME280;5450;42.994;23.372;2023-07-30T11:34:23;95815.25;;;32.81;38.34
10796;BME280;5450;42.994;23.372;2023-07-30T11:37:11;95812.22;;;32.74;39.51
10796;BME280;5450;42.994;23.372;2023-07-30T11:39:48;95760.91;;;32.25;39.72
10796;BME280;5450;42.994;23.372;2023-07-30T11:42:21;95797.66;;;32.05;39.00
10796;BME280;5450;42.994;23.372;2023-07-30T11:48:10;95802.03;;;32.32;39.43
10796;BME280;5450;42.994;23.372;2023-07-30T11:50:48;95783.16;;;32.27;37.38
10796;BME280;5450;42.994;23.372;2023-07-30T11:53:15;95802.84;;;32.33;37.42
10796;BME280;5450;42.994;23.372;2023-07-30T11:55:47;95786.03;;;32.22;36.81
10796;BME280;5450;42.994;23.372;2023-07-30T11:58:28;95746.34;;;32.04;37.58
10796;BME280;5450;42.994;23.372;2023-07-30T12:00:57;95786.97;;;32.09;38.39
10796;BME280;5450;42.994;23.372;2023-07-30T12:03:27;95782.47;;;32.04;38.00
10796;BME280;5450;42.994;23.372;2023-07-30T12:06:04;95718.78;;;31.49;38.38
10796;BME280;5450;42.994;23.372;2023-07-30T12:09:02;95768.75;;;32.18;39.24
10796;BME280;5450;42.994;23.372;2023-07-30T12:11:47;95775.50;;;32.29;40.70
10796;BME280;5450;42.994;23.372;2023-07-30T12:14:15;95740.94;;;32.21;36.33
10796;BME280;5450;42.994;23.372;2023-07-30T12:16:53;95644.44;;;31.76;34.60
10796;BME280;5450;42.994;23.372;2023-07-30T12:23:21;95753.78;;;32.46;35.53
10796;BME280;5450;42.994;23.372;2023-07-30T12:25:51;95747.66;;;32.32;37.39
10796;BME280;5450;42.994;23.372;2023-07-30T12:28:52;95738.38;;;32.25;34.47
10796;BME280;5450;42.994;23.372;2023-07-30T12:31:21;95710.22;;;32.12;34.18
10796;BME280;5450;42.994;23.372;2023-07-30T12:33:48;95727.34;;;32.30;36.45
10796;BME280;5450;42.994;23.372;2023-07-30T12:36:22;95727.53;;;32.33;37.29
10796;BME280;5450;42.994;23.372;2023-07-30T12:38:52;95726.88;;;32.36;37.62
10796;BME280;5450;42.994;23.372;2023-07-30T12:41:29;95718.22;;;32.34;37.29
10796;BME280;5450;42.994;23.372;2023-07-30T12:43:56;95728.47;;;32.20;38.93
10796;BME280;5450;42.994;23.372;2023-07-30T12:46:29;95681.91;;;32.04;39.12
10796;BME280;5450;42.994;23.372;2023-07-30T12:49:28;95721.13;;;32.38;37.44
10796;BME280;5450;42.994;23.372;2023-07-30T12:52:11;95696.63;;;32.21;38.35
10796;BME280;5450;42.994;23.372;2023-07-30T12:54:52;95690.88;;;32.22;38.01
10796;BME280;5450;42.994;23.372;2023-07-30T12:57:22;95723.38;;;32.44;38.97
10796;BME280;5450;42.994;23.372;2023-07-30T12:59:57;95737.75;;;32.36;38.47
10796;BME280;5450;42.994;23.372;2023-07-30T13:02:37;95682.41;;;32.15;38.96
10796;BME280;5450;42.994;23.372;2023-07-30T13:05:05;95698.38;;;32.08;40.23
10796;BME280;5450;42.994;23.372;2023-07-30T13:07:32;95713.75;;;32.21;40.31
10796;BME280;5450;42.994;23.372;2023-07-30T13:10:18;95709.91;;;32.22;39.93
10796;BME280;5450;42.994;23.372;2023-07-30T13:12:49;95716.94;;;32.23;41.33
10796;BME280;5450;42.994;23.372;2023-07-30T13:15:22;95721.41;;;32.19;41.14
10796;BME280;5450;42.994;23.372;2023-07-30T13:17:56;95710.38;;;32.15;40.04
10796;BME280;5450;42.994;23.372;2023-07-30T13:20:28;95703.19;;;32.11;40.46
10796;BME280;5450;42.994;23.372;2023-07-30T13:26:38;95698.84;;;32.01;40.45
10796;BME280;5450;42.994;23.372;2023-07-30T13:29:33;95694.69;;;32.04;42.25
10796;BME280;5450;42.994;23.372;2023-07-30T13:32:00;95671.94;;;31.91;39.47
10796;BME280;5450;42.994;23.372;2023-07-30T13:34:29;95689.13;;;32.09;40.08
10796;BME280;5450;42.994;23.372;2023-07-30T13:36:56;95695.50;;;32.13;39.14
10796;BME280;5450;42.994;23.372;2023-07-30T13:39:26;95666.41;;;31.96;39.31
10796;BME280;5450;42.994;23.372;2023-07-30T13:41:58;95666.69;;;31.95;39.25
10796;BME280;5450;42.994;23.372;2023-07-30T13:44:30;95644.44;;;31.84;38.96
10796;BME280;5450;42.994;23.372;2023-07-30T13:47:21;95697.59;;;32.07;39.72
10796;BME280;5450;42.994;23.372;2023-07-30T13:49:49;95648.91;;;31.72;40.27
10796;BME280;5450;42.994;23.372;2023-07-30T13:52:22;95584.97;;;31.49;40.74
10796;BME280;5450;42.994;23.372;2023-07-30T13:58:36;95675.03;;;32.07;40.60
10796;BME280;5450;42.994;23.372;2023-07-30T14:01:05;95666.41;;;32.05;40.65
10796;BME280;5450;42.994;23.372;2023-07-30T14:03:35;95683.34;;;32.02;41.07
10796;BME280;5450;42.994;23.372;2023-07-30T14:06:09;95546.34;;;31.12;40.36
10796;BME280;5450;42.994;23.372;2023-07-30T14:08:40;95664.75;;;31.87;41.34
10796;BME280;5450;42.994;23.372;2023-07-30T14:11:11;95630.78;;;31.50;40.98